BAW8023 YMML-YSSY
Flight info
| Callsign | BAW8023 |
|---|---|
| Flight time | 1h 7m |
| Altitude | 35000 |
| Route | ML H129 DOSEL Y59 RIVET |
| Aircraft | B738/M-SDE2E3FGHIRWXY/LB1 |
Departure
| Time | 2026-05-04 08:47 |
|---|---|
| Airport | Melbourne Airport (YMML) |
Arrival
| Time | 2026-05-04 09:55 |
|---|---|
| Airport | Sydney Kingsford Smith International Airport (YSSY) |
| Time | Latitude | Longitude | Altitude | Speed | Heading |
|---|---|---|---|---|---|
| 2026-05-04 07:52 | -37.67603 | 144.84391 | 372 ft | 0 kts | 117° |
| 2026-05-04 08:33 | -37.67583 | 144.84341 | 372 ft | 0 kts | 116° |
| 2026-05-04 08:35 | -37.67812 | 144.84324 | 364 ft | 14 kts | 214° |
| 2026-05-04 08:35 | -37.67850 | 144.84265 | 364 ft | 0 kts | 251° |
| 2026-05-04 08:38 | -37.67851 | 144.84260 | 362 ft | 2 kts | 251° |
| 2026-05-04 08:38 | -37.67859 | 144.84221 | 364 ft | 7 kts | 260° |
| 2026-05-04 08:38 | -37.67861 | 144.84205 | 362 ft | 0 kts | 261° |
| 2026-05-04 08:42 | -37.67861 | 144.84203 | 354 ft | 1 kts | 261° |
| 2026-05-04 08:42 | -37.67864 | 144.84177 | 373 ft | 4 kts | 261° |
| 2026-05-04 08:43 | -37.67868 | 144.84142 | 361 ft | 4 kts | 262° |
| 2026-05-04 08:43 | -37.67870 | 144.84122 | 365 ft | 0 kts | 261° |
| 2026-05-04 08:46 | -37.67858 | 144.83996 | 364 ft | 10 kts | 304° |
| 2026-05-04 08:46 | -37.67809 | 144.83957 | 364 ft | 0 kts | 349° |
| 2026-05-04 08:46 | -37.67790 | 144.83952 | 364 ft | 20 kts | 350° |
| 2026-05-04 08:47 | -37.67379 | 144.83876 | 380 ft | 97 kts | 350° |
| 2026-05-04 08:47 | -37.66496 | 144.83711 | 480 ft | 150 kts | 352° |
| 2026-05-04 08:47 | -37.65355 | 144.83497 | 860 ft | 189 kts | 353° |
| 2026-05-04 08:47 | -37.64012 | 144.83253 | 1680 ft | 190 kts | 348° |
| 2026-05-04 08:48 | -37.62712 | 144.82995 | 2471 ft | 194 kts | 346° |
| 2026-05-04 08:48 | -37.61319 | 144.82713 | 2804 ft | 210 kts | 345° |
| 2026-05-04 08:48 | -37.59853 | 144.82450 | 3388 ft | 215 kts | 351° |
| 2026-05-04 08:48 | -37.58337 | 144.82762 | 3964 ft | 229 kts | 11° |
| 2026-05-04 08:49 | -37.56833 | 144.83573 | 4462 ft | 240 kts | 18° |
| 2026-05-04 08:50 | -37.47482 | 144.89341 | 6774 ft | 274 kts | 19° |
| 2026-05-04 08:50 | -37.45766 | 144.90384 | 7623 ft | 275 kts | 19° |
| 2026-05-04 08:51 | -37.44048 | 144.91491 | 8375 ft | 284 kts | 29° |
| 2026-05-04 08:51 | -37.42639 | 144.93326 | 9152 ft | 298 kts | 49° |
| 2026-05-04 08:51 | -37.41422 | 144.95461 | 9905 ft | 303 kts | 50° |
| 2026-05-04 08:51 | -37.40191 | 144.97672 | 10403 ft | 318 kts | 51° |
| 2026-05-04 08:52 | -37.38873 | 145.00037 | 10585 ft | 342 kts | 51° |
| 2026-05-04 08:52 | -37.37460 | 145.02562 | 10761 ft | 364 kts | 51° |
| 2026-05-04 08:52 | -37.35957 | 145.05238 | 10948 ft | 385 kts | 51° |
| 2026-05-04 08:52 | -37.34386 | 145.08030 | 11386 ft | 396 kts | 51° |
| 2026-05-04 08:53 | -37.32783 | 145.10873 | 12027 ft | 400 kts | 51° |
| 2026-05-04 08:54 | -37.21150 | 145.31352 | 16456 ft | 424 kts | 51° |
| 2026-05-04 08:55 | -37.19430 | 145.34368 | 17043 ft | 427 kts | 51° |
| 2026-05-04 08:55 | -37.17691 | 145.37411 | 17610 ft | 430 kts | 51° |
| 2026-05-04 08:55 | -37.15940 | 145.40473 | 18161 ft | 434 kts | 51° |
| 2026-05-04 08:55 | -37.14173 | 145.43556 | 18676 ft | 436 kts | 51° |
| 2026-05-04 08:57 | -37.01525 | 145.65553 | 21920 ft | 454 kts | 50° |
| 2026-05-04 09:01 | -36.74656 | 146.11836 | 26640 ft | 484 kts | 46° |
| 2026-05-04 09:01 | -36.72668 | 146.15235 | 26909 ft | 486 kts | 45° |
| 2026-05-04 09:01 | -36.70679 | 146.18635 | 27225 ft | 486 kts | 45° |
| 2026-05-04 09:01 | -36.68688 | 146.22036 | 27633 ft | 484 kts | 45° |
| 2026-05-04 09:02 | -36.66708 | 146.25417 | 28035 ft | 483 kts | 45° |
| 2026-05-04 09:02 | -36.64727 | 146.28794 | 28374 ft | 483 kts | 45° |
| 2026-05-04 09:02 | -36.62743 | 146.32169 | 28710 ft | 483 kts | 45° |
| 2026-05-04 09:02 | -36.60760 | 146.35540 | 29073 ft | 482 kts | 45° |
| 2026-05-04 09:03 | -36.58778 | 146.38905 | 29452 ft | 481 kts | 45° |
| 2026-05-04 09:03 | -36.56803 | 146.42257 | 29809 ft | 481 kts | 44° |
| 2026-05-04 09:03 | -36.54821 | 146.45615 | 30141 ft | 481 kts | 44° |
| 2026-05-04 09:03 | -36.52869 | 146.48918 | 30429 ft | 481 kts | 45° |
| 2026-05-04 09:04 | -36.50862 | 146.52313 | 30677 ft | 481 kts | 45° |
| 2026-05-04 09:04 | -36.48905 | 146.55618 | 30917 ft | 482 kts | 45° |
| 2026-05-04 09:04 | -36.46915 | 146.58976 | 31173 ft | 483 kts | 45° |
| 2026-05-04 09:04 | -36.44922 | 146.62338 | 31438 ft | 483 kts | 45° |
| 2026-05-04 09:05 | -36.42930 | 146.65695 | 31678 ft | 483 kts | 45° |
| 2026-05-04 09:05 | -36.40935 | 146.69052 | 31912 ft | 484 kts | 45° |
| 2026-05-04 09:05 | -36.38930 | 146.72424 | 32172 ft | 484 kts | 45° |
| 2026-05-04 09:05 | -36.36930 | 146.75785 | 32432 ft | 484 kts | 45° |
| 2026-05-04 09:06 | -36.34929 | 146.79143 | 32680 ft | 484 kts | 45° |
| 2026-05-04 09:07 | -36.20888 | 147.02622 | 34365 ft | 483 kts | 45° |
| 2026-05-04 09:08 | -36.18878 | 147.05969 | 34544 ft | 484 kts | 45° |
| 2026-05-04 09:08 | -36.16871 | 147.09307 | 34711 ft | 485 kts | 45° |
| 2026-05-04 09:08 | -36.14880 | 147.12615 | 34883 ft | 484 kts | 45° |
| 2026-05-04 09:08 | -36.12872 | 147.15949 | 35046 ft | 485 kts | 45° |
| 2026-05-04 09:09 | -36.10841 | 147.19315 | 35033 ft | 489 kts | 45° |
| 2026-05-04 09:09 | -36.06755 | 147.26082 | 35049 ft | 493 kts | 45° |
| 2026-05-04 09:10 | -36.02634 | 147.32900 | 35050 ft | 495 kts | 45° |
| 2026-05-04 09:10 | -35.98515 | 147.39708 | 35055 ft | 496 kts | 45° |
| 2026-05-04 09:11 | -35.94360 | 147.46555 | 35049 ft | 496 kts | 44° |
| 2026-05-04 09:11 | -35.90243 | 147.53326 | 35049 ft | 496 kts | 44° |
| 2026-05-04 09:12 | -35.86107 | 147.60118 | 35067 ft | 495 kts | 44° |
| 2026-05-04 09:14 | -35.69570 | 147.87109 | 35075 ft | 493 kts | 44° |
| 2026-05-04 09:14 | -35.65437 | 147.93824 | 35071 ft | 492 kts | 44° |
| 2026-05-04 09:15 | -35.61299 | 148.00534 | 35075 ft | 493 kts | 43° |
| 2026-05-04 09:15 | -35.57154 | 148.07242 | 35074 ft | 493 kts | 43° |
| 2026-05-04 09:17 | -35.38442 | 148.37356 | 35078 ft | 495 kts | 43° |
| 2026-05-04 09:18 | -35.34248 | 148.44056 | 35073 ft | 495 kts | 43° |
| 2026-05-04 09:18 | -35.30054 | 148.50746 | 35079 ft | 495 kts | 43° |
| 2026-05-04 09:19 | -35.25853 | 148.57439 | 35073 ft | 495 kts | 43° |
| 2026-05-04 09:19 | -35.21659 | 148.64105 | 35069 ft | 496 kts | 43° |
| 2026-05-04 09:20 | -35.17436 | 148.70804 | 35073 ft | 496 kts | 43° |
| 2026-05-04 09:20 | -35.13222 | 148.77478 | 35068 ft | 496 kts | 43° |
| 2026-05-04 09:21 | -35.09002 | 148.84149 | 35079 ft | 496 kts | 43° |
| 2026-05-04 09:21 | -35.04779 | 148.90811 | 35069 ft | 496 kts | 43° |
| 2026-05-04 09:22 | -35.00556 | 148.97463 | 35057 ft | 494 kts | 43° |
| 2026-05-04 09:22 | -34.96373 | 149.04045 | 35057 ft | 488 kts | 43° |
| 2026-05-04 09:23 | -34.92215 | 149.10567 | 35062 ft | 486 kts | 43° |
| 2026-05-04 09:23 | -34.90163 | 149.13785 | 35048 ft | 475 kts | 43° |
| 2026-05-04 09:23 | -34.88174 | 149.16914 | 35049 ft | 460 kts | 42° |
| 2026-05-04 09:25 | -34.75429 | 149.36758 | 35091 ft | 426 kts | 41° |
| 2026-05-04 09:25 | -34.73653 | 149.39680 | 35073 ft | 439 kts | 49° |
| 2026-05-04 09:26 | -34.70682 | 149.46308 | 35073 ft | 449 kts | 53° |
| 2026-05-04 09:26 | -34.67822 | 149.53063 | 35071 ft | 450 kts | 53° |
| 2026-05-04 09:27 | -34.65417 | 149.58663 | 35030 ft | 447 kts | 53° |
| 2026-05-04 09:27 | -34.63970 | 149.61991 | 34827 ft | 447 kts | 53° |
| 2026-05-04 09:27 | -34.62490 | 149.65362 | 34065 ft | 455 kts | 52° |
| 2026-05-04 09:28 | -34.60990 | 149.68770 | 33317 ft | 460 kts | 53° |
| 2026-05-04 09:28 | -34.59476 | 149.72211 | 32545 ft | 465 kts | 53° |
| 2026-05-04 09:28 | -34.57947 | 149.75688 | 31807 ft | 469 kts | 53° |
| 2026-05-04 09:28 | -34.56408 | 149.79193 | 31079 ft | 472 kts | 53° |
| 2026-05-04 09:29 | -34.54861 | 149.82714 | 30378 ft | 474 kts | 54° |
| 2026-05-04 09:29 | -34.53305 | 149.86253 | 29584 ft | 476 kts | 54° |
| 2026-05-04 09:29 | -34.51738 | 149.89811 | 28751 ft | 477 kts | 54° |
| 2026-05-04 09:29 | -34.50178 | 149.93347 | 27972 ft | 477 kts | 54° |
| 2026-05-04 09:30 | -34.48606 | 149.96900 | 26979 ft | 481 kts | 54° |
| 2026-05-04 09:30 | -34.47011 | 150.00496 | 25884 ft | 488 kts | 54° |
| 2026-05-04 09:30 | -34.45400 | 150.04127 | 25094 ft | 488 kts | 54° |
| 2026-05-04 09:30 | -34.43827 | 150.07696 | 24966 ft | 471 kts | 54° |
| 2026-05-04 09:31 | -34.42312 | 150.11133 | 24838 ft | 456 kts | 54° |
| 2026-05-04 09:31 | -34.40843 | 150.14461 | 24749 ft | 440 kts | 54° |
| 2026-05-04 09:31 | -34.39418 | 150.17680 | 24653 ft | 426 kts | 53° |
| 2026-05-04 09:31 | -34.38054 | 150.20748 | 24580 ft | 413 kts | 53° |
| 2026-05-04 09:32 | -34.36708 | 150.23770 | 24495 ft | 401 kts | 53° |
| 2026-05-04 09:32 | -34.35402 | 150.26696 | 24344 ft | 391 kts | 53° |
| 2026-05-04 09:34 | -34.26097 | 150.47484 | 19265 ft | 394 kts | 55° |
| 2026-05-04 09:34 | -34.24809 | 150.50366 | 18488 ft | 385 kts | 55° |
| 2026-05-04 09:34 | -34.23548 | 150.53182 | 17634 ft | 377 kts | 56° |
| 2026-05-04 09:34 | -34.22309 | 150.55942 | 16778 ft | 370 kts | 56° |
| 2026-05-04 09:35 | -34.21093 | 150.58649 | 15952 ft | 363 kts | 56° |
| 2026-05-04 09:35 | -34.19897 | 150.61312 | 15149 ft | 357 kts | 56° |
| 2026-05-04 09:35 | -34.18722 | 150.63925 | 14365 ft | 351 kts | 56° |
| 2026-05-04 09:35 | -34.17567 | 150.66493 | 13559 ft | 346 kts | 56° |
| 2026-05-04 09:37 | -34.09982 | 150.83342 | 9117 ft | 285 kts | 55° |
| 2026-05-04 09:37 | -34.09045 | 150.85420 | 9025 ft | 280 kts | 55° |
| 2026-05-04 09:38 | -34.08120 | 150.87471 | 9006 ft | 278 kts | 55° |
| 2026-05-04 09:38 | -34.07192 | 150.89526 | 9000 ft | 279 kts | 55° |
| 2026-05-04 09:38 | -34.06262 | 150.91584 | 8999 ft | 279 kts | 55° |
| 2026-05-04 09:38 | -34.05336 | 150.93638 | 8997 ft | 279 kts | 55° |
| 2026-05-04 09:39 | -34.04409 | 150.95692 | 9000 ft | 279 kts | 55° |
| 2026-05-04 09:39 | -34.03504 | 150.97758 | 8998 ft | 282 kts | 61° |
| 2026-05-04 09:39 | -34.03114 | 151.00138 | 8412 ft | 306 kts | 88° |
| 2026-05-04 09:39 | -34.03806 | 151.02647 | 7527 ft | 326 kts | 122° |
| 2026-05-04 09:40 | -34.05337 | 151.04688 | 6717 ft | 330 kts | 134° |
| 2026-05-04 09:40 | -34.06997 | 151.06618 | 5796 ft | 333 kts | 138° |
| 2026-05-04 09:40 | -34.08989 | 151.08019 | 4916 ft | 333 kts | 161° |
| 2026-05-04 09:40 | -34.11219 | 151.08657 | 4076 ft | 331 kts | 170° |
| 2026-05-04 09:41 | -34.13466 | 151.09189 | 3433 ft | 324 kts | 169° |
| 2026-05-04 09:42 | -34.26209 | 151.12208 | 1707 ft | 199 kts | 162° |
| 2026-05-04 09:43 | -34.27562 | 151.12652 | 1832 ft | 202 kts | 165° |
| 2026-05-04 09:43 | -34.28928 | 151.13075 | 2009 ft | 204 kts | 169° |
| 2026-05-04 09:43 | -34.30320 | 151.13413 | 2198 ft | 204 kts | 168° |
| 2026-05-04 09:43 | -34.31722 | 151.13765 | 2407 ft | 211 kts | 173° |
| 2026-05-04 09:44 | -34.33197 | 151.14076 | 2704 ft | 217 kts | 162° |
| 2026-05-04 09:44 | -34.34394 | 151.15141 | 2810 ft | 215 kts | 117° |
| 2026-05-04 09:44 | -34.34717 | 151.16802 | 3023 ft | 203 kts | 85° |
| 2026-05-04 09:46 | -34.34580 | 151.28889 | 3003 ft | 206 kts | 82° |
| 2026-05-04 09:46 | -34.34205 | 151.30480 | 2975 ft | 190 kts | 42° |
| 2026-05-04 09:46 | -34.33129 | 151.31158 | 2975 ft | 173 kts | 355° |
| 2026-05-04 09:47 | -34.32055 | 151.30621 | 3010 ft | 173 kts | 323° |
| 2026-05-04 09:47 | -34.31105 | 151.29720 | 3000 ft | 174 kts | 323° |
| 2026-05-04 09:49 | -34.23657 | 151.25206 | 3005 ft | 177 kts | 346° |
| 2026-05-04 09:49 | -34.22458 | 151.24868 | 3002 ft | 176 kts | 346° |
| 2026-05-04 09:49 | -34.21288 | 151.24551 | 2985 ft | 170 kts | 346° |
| 2026-05-04 09:51 | -34.14404 | 151.22749 | 2989 ft | 170 kts | 347° |
| 2026-05-04 09:51 | -34.13254 | 151.22450 | 2998 ft | 169 kts | 347° |
| 2026-05-04 09:51 | -34.12100 | 151.22149 | 2984 ft | 170 kts | 348° |
| 2026-05-04 09:51 | -34.10933 | 151.21845 | 2861 ft | 173 kts | 347° |
| 2026-05-04 09:52 | -34.09762 | 151.21540 | 2640 ft | 172 kts | 347° |
| 2026-05-04 09:52 | -34.08597 | 151.21236 | 2418 ft | 170 kts | 348° |
| 2026-05-04 09:52 | -34.07464 | 151.20940 | 2197 ft | 164 kts | 348° |
| 2026-05-04 09:52 | -34.06357 | 151.20652 | 2009 ft | 162 kts | 348° |
| 2026-05-04 09:53 | -34.05229 | 151.20358 | 1786 ft | 169 kts | 349° |
| 2026-05-04 09:53 | -34.04077 | 151.20058 | 1550 ft | 170 kts | 349° |
| 2026-05-04 09:53 | -34.02919 | 151.19757 | 1346 ft | 172 kts | 348° |
| 2026-05-04 09:53 | -34.01735 | 151.19450 | 1067 ft | 172 kts | 351° |
| 2026-05-04 09:54 | -34.00583 | 151.19148 | 895 ft | 171 kts | 348° |
| 2026-05-04 09:54 | -33.99411 | 151.18842 | 640 ft | 170 kts | 350° |
| 2026-05-04 09:54 | -33.98251 | 151.18540 | 411 ft | 170 kts | 348° |
| 2026-05-04 09:54 | -33.97104 | 151.18241 | 203 ft | 169 kts | 349° |
| 2026-05-04 09:55 | -33.95998 | 151.17954 | 21 ft | 152 kts | 349° |
| 2026-05-04 09:55 | -33.95098 | 151.17723 | 20 ft | 117 kts | 348° |
| 2026-05-04 09:55 | -33.94516 | 151.17697 | 22 ft | 27 kts | 16° |
| 2026-05-04 09:55 | -33.94425 | 151.17730 | 21 ft | 0 kts | 17° |
| 2026-05-04 09:56 | -33.94417 | 151.17733 | 21 ft | 6 kts | 16° |
| 2026-05-04 09:56 | -33.94340 | 151.17735 | 21 ft | 17 kts | 353° |
| 2026-05-04 09:57 | -33.94274 | 151.17721 | 21 ft | 7 kts | 347° |
| 2026-05-04 09:57 | -33.94186 | 151.17694 | 21 ft | 18 kts | 343° |
| 2026-05-04 09:57 | -33.94155 | 151.17683 | 21 ft | 0 kts | 344° |
| 2026-05-04 09:58 | -33.94125 | 151.17673 | 21 ft | 8 kts | 345° |
| 2026-05-04 09:58 | -33.94064 | 151.17654 | 21 ft | 11 kts | 346° |
| 2026-05-04 09:58 | -33.93983 | 151.17630 | 21 ft | 14 kts | 347° |
| 2026-05-04 10:00 | -33.93599 | 151.17689 | 29 ft | 0 kts | 74° |